createdAt,value
2023-02-21T00:00:40.719Z,5.80
2023-02-21T00:02:42.272Z,5.30
2023-02-21T00:04:44.818Z,6.55
2023-02-21T00:06:47.652Z,5.95
2023-02-21T00:08:49.207Z,6.32
2023-02-21T00:10:50.746Z,6.05
2023-02-21T00:12:52.242Z,5.95
2023-02-21T00:14:53.822Z,5.33
2023-02-21T00:16:55.417Z,5.97
2023-02-21T00:18:56.924Z,5.07
2023-02-21T00:20:58.444Z,4.90
2023-02-21T00:23:01.404Z,5.60
2023-02-21T00:25:05.467Z,5.33
2023-02-21T00:27:07.026Z,5.20
2023-02-21T00:29:08.639Z,5.80
2023-02-21T00:31:10.243Z,4.82
2023-02-21T00:33:11.911Z,5.43
2023-02-21T00:35:13.754Z,6.30
2023-02-21T00:37:15.294Z,5.30
2023-02-21T00:39:18.293Z,4.80
2023-02-21T00:41:21.709Z,5.47
2023-02-21T00:43:28.313Z,5.10
2023-02-21T00:45:29.956Z,6.07
2023-02-21T00:47:31.527Z,5.47
2023-02-21T00:49:33.125Z,5.60
2023-02-21T00:51:34.809Z,5.53
2023-02-21T00:53:36.268Z,4.87
2023-02-21T00:55:39.210Z,6.20
2023-02-21T00:57:40.766Z,5.30
2023-02-21T00:59:42.308Z,6.33
2023-02-21T01:01:44.054Z,5.10
2023-02-21T01:03:45.661Z,6.03
2023-02-21T01:05:47.213Z,5.53
2023-02-21T01:07:48.713Z,5.78
2023-02-21T01:09:50.285Z,6.27
2023-02-21T01:11:53.289Z,5.82
2023-02-21T01:13:54.828Z,5.93
2023-02-21T01:15:56.576Z,6.25
2023-02-21T01:17:58.212Z,5.85
2023-02-21T01:20:00.726Z,6.28
2023-02-21T01:22:02.804Z,6.63
2023-02-21T01:24:05.636Z,5.40
2023-02-21T01:26:08.762Z,6.40
2023-02-21T01:28:11.624Z,5.78
2023-02-21T01:30:13.329Z,6.80
2023-02-21T01:32:14.990Z,6.20
2023-02-21T01:34:16.558Z,5.90
2023-02-21T01:36:18.158Z,6.70
2023-02-21T01:38:19.690Z,6.33
2023-02-21T01:40:21.299Z,6.20
2023-02-21T01:42:22.973Z,5.97
2023-02-21T01:44:33.362Z,5.57
2023-02-21T01:46:34.977Z,6.00
2023-02-21T01:48:37.195Z,5.57
2023-02-21T01:50:38.862Z,6.77
2023-02-21T01:52:40.562Z,6.27
2023-02-21T01:54:46.100Z,5.97
2023-02-21T01:56:48.430Z,6.63
2023-02-21T01:58:53.172Z,6.63
2023-02-21T02:00:56.225Z,5.97
2023-02-21T02:03:00.701Z,6.10
2023-02-21T02:05:03.143Z,5.93
2023-02-21T02:07:04.825Z,6.30
2023-02-21T02:09:16.592Z,6.57
2023-02-21T02:11:31.468Z,6.70
2023-02-21T02:13:51.122Z,6.57
2023-02-21T02:16:01.630Z,6.40
2023-02-21T02:18:35.022Z,6.07
2023-02-21T02:21:13.514Z,5.63
2023-02-21T02:24:01.222Z,6.43
2023-02-21T02:26:35.000Z,6.30
2023-02-21T02:28:54.827Z,5.78
2023-02-21T02:31:42.276Z,5.70
2023-02-21T02:34:18.578Z,6.55
2023-02-21T02:36:25.969Z,6.55
2023-02-21T02:38:33.890Z,6.65
2023-02-21T02:40:42.110Z,5.25
2023-02-21T02:42:54.037Z,6.10
2023-02-21T02:45:00.924Z,6.35
2023-02-21T02:47:04.537Z,6.72
2023-02-21T02:49:10.213Z,7.00
2023-02-21T02:51:15.035Z,6.22
2023-02-21T02:53:21.053Z,7.50
2023-02-21T02:55:34.147Z,6.55
2023-02-21T02:57:35.758Z,6.50
2023-02-21T02:59:39.612Z,6.63
2023-02-21T03:02:03.485Z,5.97
2023-02-21T03:04:20.571Z,5.93
2023-02-21T03:06:30.559Z,6.40
2023-02-21T03:08:45.913Z,6.82
2023-02-21T03:10:54.830Z,6.65
2023-02-21T03:13:02.776Z,7.00
2023-02-21T03:15:11.527Z,6.90
2023-02-21T03:17:18.646Z,6.93
2023-02-21T03:19:25.436Z,6.35
2023-02-21T03:21:30.371Z,6.55
2023-02-21T03:23:34.605Z,6.82
2023-02-21T03:25:39.946Z,6.80
2023-02-21T03:27:43.994Z,6.63
2023-02-21T03:29:46.364Z,5.75
2023-02-21T03:31:53.521Z,6.93
2023-02-21T03:33:55.734Z,7.05
2023-02-21T03:35:59.502Z,6.20
2023-02-21T03:38:01.066Z,5.93
2023-02-21T03:40:05.060Z,6.10
2023-02-21T03:42:08.084Z,7.10
2023-02-21T03:44:09.761Z,6.03
2023-02-21T03:46:11.457Z,6.32
2023-02-21T03:48:17.748Z,6.95
2023-02-21T03:50:24.689Z,10.82
2023-02-21T03:52:26.391Z,7.28
2023-02-21T03:54:28.001Z,7.53
2023-02-21T03:56:41.263Z,6.35
2023-02-21T03:58:45.008Z,6.93
2023-02-21T04:00:47.006Z,6.72
2023-02-21T04:02:48.661Z,6.53
2023-02-21T04:04:53.412Z,6.45
2023-02-21T04:06:55.078Z,6.00
2023-02-21T04:08:56.672Z,6.32
2023-02-21T04:10:58.246Z,6.60
2023-02-21T04:12:59.930Z,6.65
2023-02-21T04:15:03.463Z,6.90
2023-02-21T04:17:05.402Z,7.03
2023-02-21T04:19:07.076Z,6.88
2023-02-21T04:21:08.723Z,6.30
2023-02-21T04:23:10.363Z,7.45
2023-02-21T04:25:11.992Z,8.05
2023-02-21T04:27:14.028Z,7.53
2023-02-21T04:29:15.654Z,7.15
2023-02-21T04:31:19.380Z,6.40
2023-02-21T04:33:30.034Z,7.10
2023-02-21T04:35:31.592Z,7.28
2023-02-21T04:37:33.187Z,7.10
2023-02-21T04:39:34.988Z,7.85
2023-02-21T04:41:36.633Z,6.80
2023-02-21T04:43:38.261Z,6.30
2023-02-21T04:45:39.896Z,7.15
2023-02-21T04:47:42.876Z,6.63
2023-02-21T04:49:44.570Z,7.78
2023-02-21T04:51:46.140Z,7.22
2023-02-21T04:53:49.146Z,7.70
2023-02-21T04:55:50.954Z,6.63
2023-02-21T04:57:52.494Z,6.78
2023-02-21T04:59:58.292Z,6.88
2023-02-21T05:02:02.850Z,7.45
2023-02-21T05:04:06.264Z,7.25
2023-02-21T05:06:08.298Z,7.07
2023-02-21T05:08:10.000Z,7.03
2023-02-21T05:10:12.163Z,7.15
2023-02-21T05:12:13.792Z,8.65
2023-02-21T05:14:15.616Z,6.60
2023-02-21T05:16:18.429Z,7.40
2023-02-21T05:18:20.148Z,7.38
2023-02-21T05:20:23.110Z,7.03
2023-02-21T05:22:24.892Z,6.03
2023-02-21T05:24:28.128Z,6.82
2023-02-21T05:26:34.978Z,6.78
2023-02-21T05:28:37.412Z,7.22
2023-02-21T05:30:39.117Z,7.15
2023-02-21T05:32:41.550Z,7.07
2023-02-21T05:34:43.295Z,8.23
2023-02-21T05:36:46.582Z,7.30
2023-02-21T05:38:50.582Z,7.80
2023-02-21T05:40:52.638Z,7.43
2023-02-21T05:42:54.219Z,7.60
2023-02-21T05:44:55.771Z,6.85
2023-02-21T05:46:57.388Z,7.80
2023-02-21T05:49:00.691Z,7.53
2023-02-21T05:51:02.243Z,6.85
2023-02-21T05:53:05.269Z,6.88
2023-02-21T05:55:07.116Z,7.80
2023-02-21T05:57:09.092Z,7.00
2023-02-21T05:59:11.482Z,7.60
2023-02-21T06:01:13.666Z,6.75
2023-02-21T06:03:15.508Z,8.07
2023-02-21T06:05:17.043Z,8.00
2023-02-21T06:07:18.612Z,8.77
2023-02-21T06:09:21.641Z,7.55
2023-02-21T06:11:24.937Z,7.15
2023-02-21T06:13:26.595Z,7.07
2023-02-21T06:15:28.258Z,7.20
2023-02-21T06:17:29.817Z,7.45
2023-02-21T06:19:33.308Z,7.65
2023-02-21T06:21:35.347Z,8.00
2023-02-21T06:23:36.897Z,7.82
2023-02-21T06:25:39.814Z,7.28
2023-02-21T06:27:41.471Z,7.37
2023-02-21T06:29:43.042Z,8.95
2023-02-21T06:31:44.706Z,7.28
2023-02-21T06:33:46.805Z,8.27
2023-02-21T06:35:48.372Z,8.27
2023-02-21T06:37:49.907Z,7.57
2023-02-21T06:39:51.548Z,7.85
2023-02-21T06:41:54.442Z,7.43
2023-02-21T06:43:57.543Z,7.15
2023-02-21T06:45:59.165Z,8.63
2023-02-21T06:48:00.833Z,8.65
2023-02-21T06:50:02.396Z,7.75
2023-02-21T06:52:04.454Z,8.30
2023-02-21T06:54:06.831Z,8.00
2023-02-21T06:56:08.813Z,7.45
2023-02-21T06:58:11.740Z,8.45
2023-02-21T07:00:14.314Z,7.72
2023-02-21T07:02:18.049Z,8.45
2023-02-21T07:04:19.665Z,8.55
2023-02-21T07:06:21.312Z,9.25
2023-02-21T07:08:22.911Z,8.75
2023-02-21T07:10:24.545Z,8.30
2023-02-21T07:12:26.366Z,7.90
2023-02-21T07:14:29.358Z,8.10
2023-02-21T07:16:31.088Z,9.20
2023-02-21T07:18:32.894Z,8.35
2023-02-21T07:20:34.438Z,8.70
2023-02-21T07:22:36.019Z,9.27
2023-02-21T07:24:37.707Z,8.60
2023-02-21T07:26:39.353Z,8.57
2023-02-21T07:28:42.151Z,10.23
2023-02-21T07:30:49.747Z,8.48
2023-02-21T07:32:51.431Z,8.95
2023-02-21T07:34:53.058Z,9.20
2023-02-21T07:36:54.715Z,9.45
2023-02-21T07:38:56.293Z,8.88
2023-02-21T07:40:59.519Z,9.60
2023-02-21T07:43:01.286Z,9.25
2023-02-21T07:45:03.800Z,10.48
2023-02-21T07:47:09.353Z,9.70
2023-02-21T07:49:10.980Z,8.68
2023-02-21T07:51:12.719Z,10.38
2023-02-21T07:53:15.664Z,10.07
2023-02-21T07:55:17.349Z,10.05
2023-02-21T07:57:19.051Z,10.25
2023-02-21T07:59:20.752Z,10.95
2023-02-21T08:01:24.666Z,10.23
2023-02-21T08:03:27.822Z,9.73
2023-02-21T08:05:29.557Z,11.25
2023-02-21T08:07:33.987Z,11.48
2023-02-21T08:09:35.901Z,10.15
2023-02-21T08:11:37.577Z,10.65
2023-02-21T08:13:39.317Z,12.05
2023-02-21T08:15:40.929Z,10.98
2023-02-21T08:17:42.540Z,11.15
2023-02-21T08:19:45.602Z,11.75
2023-02-21T08:21:47.928Z,10.88
2023-02-21T08:23:53.288Z,11.50
2023-02-21T08:25:54.942Z,11.32
2023-02-21T08:27:56.505Z,11.20
2023-02-21T08:29:58.272Z,10.32
2023-02-21T08:31:59.882Z,10.75
2023-02-21T08:34:01.651Z,11.13
2023-02-21T08:36:05.342Z,10.47
2023-02-21T08:38:06.933Z,12.70
2023-02-21T08:40:09.415Z,13.20
2023-02-21T08:42:11.931Z,12.30
2023-02-21T08:44:15.634Z,13.17
2023-02-21T08:46:17.234Z,12.60
2023-02-21T08:48:18.786Z,13.17
2023-02-21T08:50:22.809Z,13.30
2023-02-21T08:52:25.791Z,12.30
2023-02-21T08:54:27.395Z,12.33
2023-02-21T08:56:29.742Z,12.20
2023-02-21T08:58:31.358Z,12.53
2023-02-21T09:00:32.986Z,13.50
2023-02-21T09:02:34.577Z,11.73
2023-02-21T09:04:36.213Z,13.07
2023-02-21T09:06:37.862Z,12.63
2023-02-21T09:08:40.766Z,11.80
2023-02-21T09:10:42.394Z,13.57
2023-02-21T09:12:44.074Z,12.85
2023-02-21T09:14:45.649Z,12.97
2023-02-21T09:16:48.025Z,12.60
2023-02-21T09:18:55.024Z,12.43
2023-02-21T09:20:56.934Z,12.20
2023-02-21T09:22:58.690Z,12.17
2023-02-21T09:25:01.825Z,11.27
2023-02-21T09:27:04.377Z,11.90
2023-02-21T09:29:05.949Z,12.00
2023-02-21T09:31:07.564Z,12.53
2023-02-21T09:33:09.715Z,13.00
2023-02-21T09:35:13.732Z,13.03
2023-02-21T09:37:15.346Z,11.70
2023-02-21T09:39:17.448Z,12.67
2023-02-21T09:41:20.676Z,12.37
2023-02-21T09:43:30.994Z,13.70
2023-02-21T09:45:36.165Z,13.57
2023-02-21T09:47:39.157Z,12.77
2023-02-21T09:49:43.932Z,13.90
2023-02-21T09:51:45.788Z,12.93
2023-02-21T09:53:48.802Z,13.30
2023-02-21T09:55:54.059Z,14.13
2023-02-21T09:57:57.516Z,13.80
2023-02-21T09:59:59.146Z,13.97
2023-02-21T10:02:23.959Z,14.43
2023-02-21T10:04:35.990Z,14.67
2023-02-21T10:06:46.244Z,13.60
2023-02-21T10:08:53.714Z,13.30
2023-02-21T10:10:58.175Z,13.53
2023-02-21T10:13:08.108Z,14.20
2023-02-21T10:15:21.986Z,14.47
2023-02-21T10:17:28.421Z,13.80
2023-02-21T10:19:33.928Z,14.07
2023-02-21T10:21:39.774Z,13.10
2023-02-21T10:23:49.908Z,14.70
2023-02-21T10:25:55.581Z,15.50
2023-02-21T10:27:58.926Z,14.80
2023-02-21T10:30:05.410Z,14.20
2023-02-21T10:32:08.356Z,15.00
2023-02-21T10:34:19.069Z,15.53
2023-02-21T10:36:23.131Z,14.70
2023-02-21T10:38:26.374Z,13.30
2023-02-21T10:40:34.046Z,16.10
2023-02-21T10:42:43.819Z,15.10
2023-02-21T10:44:46.047Z,16.13
2023-02-21T10:46:55.753Z,17.43
2023-02-21T10:49:20.332Z,16.90
2023-02-21T10:51:33.545Z,15.27
2023-02-21T10:53:37.032Z,15.37
2023-02-21T10:55:38.702Z,16.60
2023-02-21T10:57:43.846Z,14.60
2023-02-21T10:59:50.662Z,14.90
2023-02-21T11:01:54.794Z,15.50
2023-02-21T11:03:59.204Z,15.40
2023-02-21T11:06:00.919Z,14.30
2023-02-21T11:08:05.066Z,14.70
2023-02-21T11:10:28.912Z,14.00
2023-02-21T11:12:30.769Z,14.53
2023-02-21T11:14:33.741Z,14.57
2023-02-21T11:16:35.356Z,14.03
2023-02-21T11:18:38.358Z,13.10
2023-02-21T11:20:40.721Z,14.90
2023-02-21T11:22:45.025Z,15.37
2023-02-21T11:24:53.515Z,14.63
2023-02-21T11:26:55.096Z,20.40
2023-02-21T11:29:11.949Z,14.43
2023-02-21T11:31:18.607Z,14.03
2023-02-21T11:33:22.132Z,13.80
2023-02-21T11:35:28.448Z,15.13
2023-02-21T11:37:30.679Z,12.83
2023-02-21T11:39:33.567Z,13.07
2023-02-21T11:41:40.096Z,12.50
2023-02-21T11:43:47.918Z,12.30
2023-02-21T11:46:00.133Z,11.70
2023-02-21T11:48:05.610Z,15.37
2023-02-21T11:50:11.082Z,13.33
2023-02-21T11:52:20.457Z,14.10
2023-02-21T11:54:27.105Z,13.17
2023-02-21T11:56:36.402Z,13.40
2023-02-21T11:58:45.049Z,15.17
2023-02-21T12:00:55.733Z,13.10
2023-02-21T12:03:13.725Z,12.80
2023-02-21T12:05:31.069Z,13.97
2023-02-21T12:07:45.062Z,14.13
2023-02-21T12:09:54.265Z,12.50
2023-02-21T12:12:07.271Z,12.87
2023-02-21T12:14:44.335Z,12.63
2023-02-21T12:16:55.234Z,12.00
2023-02-21T12:19:11.408Z,12.93
2023-02-21T12:21:33.826Z,12.80
2023-02-21T12:23:45.783Z,13.73
2023-02-21T12:26:08.957Z,14.00
2023-02-21T12:28:19.651Z,14.80
2023-02-21T12:30:52.765Z,13.27
2023-02-21T12:33:05.906Z,14.23
2023-02-21T12:35:43.040Z,14.80
2023-02-21T12:37:50.171Z,12.27
2023-02-21T12:40:11.268Z,12.20
2023-02-21T12:42:34.052Z,13.40
2023-02-21T12:44:50.178Z,13.30
2023-02-21T12:46:58.015Z,13.10
2023-02-21T12:49:06.830Z,12.90
2023-02-21T12:51:13.237Z,13.60
2023-02-21T12:53:18.773Z,12.97
2023-02-21T12:55:24.784Z,13.47
2023-02-21T12:57:32.903Z,13.37
2023-02-21T12:59:48.207Z,12.57
2023-02-21T13:01:55.872Z,12.07
2023-02-21T13:04:10.073Z,12.07
2023-02-21T13:06:18.895Z,12.00
2023-02-21T13:08:24.292Z,11.07
2023-02-21T13:10:32.644Z,12.10
2023-02-21T13:12:42.384Z,11.60
2023-02-21T13:14:48.785Z,10.53
2023-02-21T13:16:53.077Z,11.87
2023-02-21T13:19:00.302Z,10.83
2023-02-21T13:21:12.124Z,10.43
2023-02-21T13:23:44.754Z,10.70
2023-02-21T13:26:03.083Z,10.13
2023-02-21T13:28:12.239Z,11.00
2023-02-21T13:30:17.320Z,9.87
2023-02-21T13:32:20.023Z,10.00
2023-02-21T13:34:24.847Z,9.77
2023-02-21T13:36:30.425Z,9.80
2023-02-21T13:38:32.496Z,8.97
2023-02-21T13:40:42.564Z,8.47
2023-02-21T13:42:45.760Z,7.40
2023-02-21T13:44:49.982Z,8.97
2023-02-21T13:47:13.433Z,10.10
2023-02-21T13:49:37.399Z,8.10
2023-02-21T13:51:46.667Z,8.00
2023-02-21T13:54:09.144Z,8.33
2023-02-21T13:56:19.739Z,8.37
2023-02-21T13:58:34.038Z,7.70
2023-02-21T14:00:50.441Z,7.37
2023-02-21T14:02:55.588Z,7.30
2023-02-21T14:05:07.032Z,6.80
2023-02-21T14:07:09.140Z,7.93
2023-02-21T14:09:14.734Z,7.80
2023-02-21T14:11:20.952Z,7.93
2023-02-21T14:13:27.789Z,7.67
2023-02-21T14:15:45.944Z,7.73
2023-02-21T14:17:48.026Z,7.30
2023-02-21T14:19:50.916Z,8.53
2023-02-21T14:22:00.697Z,7.57
2023-02-21T14:24:06.117Z,8.07
2023-02-21T14:26:32.113Z,7.37
2023-02-21T14:29:07.818Z,7.33
2023-02-21T14:31:12.119Z,7.60
2023-02-21T14:33:25.000Z,6.47
2023-02-21T14:35:33.458Z,6.27
2023-02-21T14:37:38.574Z,6.47
2023-02-21T14:39:46.106Z,5.90
2023-02-21T14:42:05.046Z,6.40
2023-02-21T14:44:19.018Z,6.10
2023-02-21T14:46:40.574Z,6.60
2023-02-21T14:49:05.172Z,6.90
2023-02-21T14:51:45.703Z,5.90
2023-02-21T14:54:04.742Z,6.67
2023-02-21T14:56:56.878Z,6.50
2023-02-21T14:59:31.905Z,5.30
2023-02-21T15:01:52.909Z,5.73
2023-02-21T15:04:02.204Z,7.00
2023-02-21T15:06:07.788Z,5.27
2023-02-21T15:08:15.956Z,5.77
2023-02-21T15:10:22.121Z,5.87
2023-02-21T15:12:23.964Z,5.33
2023-02-21T15:14:27.699Z,5.93
2023-02-21T15:16:32.061Z,4.70
2023-02-21T15:18:36.529Z,5.50
2023-02-21T15:20:39.636Z,7.17
2023-02-21T15:22:41.465Z,4.97
2023-02-21T15:24:59.720Z,4.90
2023-02-21T15:27:12.044Z,4.83
2023-02-21T15:29:15.805Z,4.77
2023-02-21T15:31:17.812Z,5.10
2023-02-21T15:33:20.908Z,6.13
2023-02-21T15:35:26.953Z,5.73
2023-02-21T15:37:32.116Z,6.20
2023-02-21T15:39:38.328Z,5.80
2023-02-21T15:41:45.132Z,5.40
2023-02-21T15:43:50.924Z,4.90
2023-02-21T15:45:55.551Z,5.80
2023-02-21T15:47:59.658Z,4.70
2023-02-21T15:50:05.821Z,6.30
2023-02-21T15:52:28.622Z,4.50
2023-02-21T15:54:32.734Z,4.80
2023-02-21T15:56:34.452Z,4.60
2023-02-21T15:58:36.068Z,4.20
2023-02-21T16:00:40.049Z,4.00
2023-02-21T16:02:42.526Z,4.57
2023-02-21T16:04:45.744Z,4.57
2023-02-21T16:06:50.866Z,4.30
2023-02-21T16:09:20.038Z,5.27
2023-02-21T16:11:21.610Z,5.37
2023-02-21T16:13:23.837Z,4.97
2023-02-21T16:15:28.145Z,4.30
2023-02-21T16:17:33.040Z,4.30
2023-02-21T16:19:36.666Z,5.90
2023-02-21T16:21:38.297Z,5.23
2023-02-21T16:23:42.745Z,4.90
2023-02-21T16:26:17.570Z,6.50
2023-02-21T16:28:20.468Z,5.07
2023-02-21T16:30:24.156Z,5.20
2023-02-21T16:32:25.825Z,6.07
2023-02-21T16:34:30.531Z,5.60
2023-02-21T16:36:32.688Z,5.50
2023-02-21T16:38:34.284Z,5.33
2023-02-21T16:40:36.377Z,5.50
2023-02-21T16:42:37.995Z,5.67
2023-02-21T16:44:43.219Z,4.60
2023-02-21T16:46:44.882Z,4.80
2023-02-21T16:48:46.527Z,5.73
2023-02-21T16:50:50.748Z,5.23
2023-02-21T16:52:52.389Z,5.07
2023-02-21T16:54:54.239Z,5.10
2023-02-21T16:56:56.120Z,6.77
2023-02-21T16:58:57.964Z,6.10
2023-02-21T17:01:04.491Z,6.10
2023-02-21T17:03:06.164Z,7.00
2023-02-21T17:05:08.089Z,8.23
2023-02-21T17:07:10.124Z,6.83
2023-02-21T17:09:19.864Z,9.27
2023-02-21T17:11:21.666Z,12.10
2023-02-21T17:13:23.272Z,14.50
2023-02-21T17:15:24.856Z,15.23
2023-02-21T17:17:33.023Z,15.50
2023-02-21T17:19:34.849Z,13.93
2023-02-21T17:21:36.486Z,13.00
2023-02-21T17:23:38.226Z,12.90
2023-02-21T17:25:39.828Z,11.73
2023-02-21T17:27:41.897Z,10.57
2023-02-21T17:29:43.486Z,10.87
2023-02-21T17:31:45.158Z,10.30
2023-02-21T17:33:48.160Z,10.63
2023-02-21T17:35:49.985Z,9.13
2023-02-21T17:37:51.843Z,9.10
2023-02-21T17:39:54.981Z,7.90
2023-02-21T17:41:56.951Z,10.97
2023-02-21T17:43:58.536Z,11.27
2023-02-21T17:46:00.561Z,13.77
2023-02-21T17:48:02.479Z,15.70
2023-02-21T17:50:06.648Z,9.90
2023-02-21T17:52:08.403Z,8.40
2023-02-21T17:54:10.095Z,9.30
2023-02-21T17:56:11.885Z,15.10
2023-02-21T17:58:13.789Z,17.67
2023-02-21T18:00:19.063Z,20.93
2023-02-21T18:02:20.728Z,14.33
2023-02-21T18:04:22.668Z,11.80
2023-02-21T18:06:25.750Z,9.70
2023-02-21T18:08:27.483Z,13.80
2023-02-21T18:10:29.464Z,21.50
2023-02-21T18:12:31.986Z,17.77
2023-02-21T18:14:33.681Z,21.63
2023-02-21T18:16:36.960Z,18.10
2023-02-21T18:18:38.752Z,17.10
2023-02-21T18:20:40.477Z,13.00
2023-02-21T18:22:43.614Z,15.00
2023-02-21T18:24:45.178Z,15.37
2023-02-21T18:26:46.969Z,12.87
2023-02-21T18:28:48.681Z,9.53
2023-02-21T18:30:50.273Z,8.50
2023-02-21T18:32:51.889Z,9.00
2023-02-21T18:34:53.664Z,9.27
2023-02-21T18:36:55.448Z,7.33
2023-02-21T18:38:58.416Z,8.37
2023-02-21T18:41:00.042Z,9.70
2023-02-21T18:43:01.749Z,8.83
2023-02-21T18:45:03.764Z,7.27
2023-02-21T18:47:05.532Z,7.97
2023-02-21T18:49:07.176Z,12.57
2023-02-21T18:51:09.509Z,10.30
2023-02-21T18:53:11.808Z,8.37
2023-02-21T18:55:14.848Z,7.67
2023-02-21T18:57:17.564Z,6.70
2023-02-21T18:59:21.456Z,6.30
2023-02-21T19:01:23.473Z,6.53
2023-02-21T19:03:25.210Z,7.10
2023-02-21T19:05:27.305Z,7.80
2023-02-21T19:07:28.920Z,6.90
2023-02-21T19:09:30.516Z,8.07
2023-02-21T19:11:33.659Z,7.77
2023-02-21T19:13:35.251Z,7.17
2023-02-21T19:15:36.854Z,7.17
2023-02-21T19:17:38.542Z,7.80
2023-02-21T19:19:40.158Z,8.40
2023-02-21T19:21:41.708Z,12.20
2023-02-21T19:23:43.269Z,10.47
2023-02-21T19:25:45.007Z,9.27
2023-02-21T19:27:48.007Z,10.50
2023-02-21T19:29:49.632Z,7.83
2023-02-21T19:31:51.367Z,8.83
2023-02-21T19:33:53.272Z,7.63
2023-02-21T19:35:55.164Z,6.43
2023-02-21T19:37:57.718Z,6.60
2023-02-21T19:39:59.353Z,6.70
2023-02-21T19:42:01.386Z,6.40
2023-02-21T19:44:05.066Z,6.50
2023-02-21T19:46:06.746Z,6.30
2023-02-21T19:48:08.707Z,5.63
2023-02-21T19:50:10.803Z,6.33
2023-02-21T19:52:12.543Z,5.90
2023-02-21T19:54:16.205Z,6.93
2023-02-21T19:56:17.772Z,6.70
2023-02-21T19:58:19.408Z,7.10
2023-02-21T20:00:22.940Z,7.70
2023-02-21T20:02:24.573Z,6.70
2023-02-21T20:04:26.582Z,6.63
2023-02-21T20:06:28.369Z,7.20
2023-02-21T20:08:30.102Z,6.90
2023-02-21T20:10:31.777Z,6.93
2023-02-21T20:12:33.454Z,12.00
2023-02-21T20:14:35.067Z,7.97
2023-02-21T20:16:42.590Z,7.97
2023-02-21T20:18:44.767Z,8.10
2023-02-21T20:20:46.520Z,8.83
2023-02-21T20:22:48.133Z,9.30
2023-02-21T20:24:49.817Z,8.30
2023-02-21T20:26:53.185Z,7.73
2023-02-21T20:28:55.885Z,7.80
2023-02-21T20:30:57.560Z,8.10
2023-02-21T20:33:00.680Z,7.50
2023-02-21T20:35:02.428Z,7.40
2023-02-21T20:37:04.157Z,7.60
2023-02-21T20:39:06.821Z,7.77
2023-02-21T20:41:09.066Z,7.63
2023-02-21T20:43:10.737Z,7.63
2023-02-21T20:45:12.331Z,7.73
2023-02-21T20:47:14.157Z,7.93
2023-02-21T20:49:17.571Z,7.70
2023-02-21T20:51:27.890Z,7.57
2023-02-21T20:53:29.856Z,7.40
2023-02-21T20:55:31.434Z,7.90
2023-02-21T20:57:33.041Z,8.20
2023-02-21T20:59:36.839Z,8.30
2023-02-21T21:01:38.604Z,6.57
2023-02-21T21:03:40.218Z,7.53
2023-02-21T21:05:43.439Z,7.17
2023-02-21T21:07:45.744Z,8.13
2023-02-21T21:09:47.693Z,8.93
2023-02-21T21:11:49.249Z,7.80
2023-02-21T21:13:50.812Z,9.30
2023-02-21T21:15:52.437Z,9.33
2023-02-21T21:17:54.541Z,8.50
2023-02-21T21:19:56.174Z,8.53
2023-02-21T21:21:59.217Z,9.07
2023-02-21T21:24:00.767Z,9.37
2023-02-21T21:26:05.862Z,10.43
2023-02-21T21:28:09.931Z,10.77
2023-02-21T21:30:13.001Z,12.75
2023-02-21T21:32:17.003Z,30.00
2023-02-21T21:34:19.083Z,35.77
2023-02-21T21:36:20.683Z,22.40
2023-02-21T21:38:24.227Z,19.93
2023-02-21T21:40:26.710Z,13.63
2023-02-21T21:42:29.093Z,12.80
2023-02-21T21:44:31.992Z,13.90
2023-02-21T21:46:33.588Z,15.33
2023-02-21T21:48:35.289Z,13.13
2023-02-21T21:50:36.911Z,14.80
2023-02-21T21:52:38.478Z,12.70
2023-02-21T21:54:43.435Z,13.00
2023-02-21T21:56:45.036Z,14.23
2023-02-21T21:58:46.589Z,13.47
2023-02-21T22:00:48.242Z,12.37
2023-02-21T22:02:51.143Z,13.63
2023-02-21T22:04:52.732Z,13.60
2023-02-21T22:06:56.074Z,12.43
2023-02-21T22:08:57.672Z,12.17
2023-02-21T22:11:00.584Z,12.97
2023-02-21T22:13:02.283Z,12.87
2023-02-21T22:15:06.359Z,12.60
2023-02-21T22:17:08.004Z,11.90
2023-02-21T22:19:10.083Z,11.55
2023-02-21T22:21:11.795Z,12.17
2023-02-21T22:23:13.373Z,11.97
2023-02-21T22:25:15.850Z,12.10
2023-02-21T22:27:18.833Z,13.03
2023-02-21T22:29:21.572Z,11.33
2023-02-21T22:31:23.215Z,12.50
2023-02-21T22:33:24.909Z,12.07
2023-02-21T22:35:26.463Z,12.23
2023-02-21T22:37:28.025Z,12.70
2023-02-21T22:39:29.794Z,11.47
2023-02-21T22:41:31.389Z,12.00
2023-02-21T22:43:34.332Z,13.40
2023-02-21T22:45:37.291Z,13.17
2023-02-21T22:47:39.140Z,13.13
2023-02-21T22:49:44.094Z,12.37
2023-02-21T22:51:45.910Z,14.17
2023-02-21T22:53:47.650Z,13.80
2023-02-21T22:55:51.596Z,13.27
2023-02-21T22:57:55.362Z,14.30
2023-02-21T22:59:58.323Z,14.67
2023-02-21T23:02:00.452Z,13.57
2023-02-21T23:04:02.089Z,13.77
2023-02-21T23:06:04.409Z,12.70
2023-02-21T23:08:06.221Z,13.50
2023-02-21T23:10:08.115Z,13.30
2023-02-21T23:12:10.693Z,12.83
2023-02-21T23:14:12.918Z,11.87
2023-02-21T23:16:20.711Z,10.30
2023-02-21T23:18:23.184Z,10.17
2023-02-21T23:20:25.179Z,8.97
2023-02-21T23:22:26.872Z,10.53
2023-02-21T23:24:28.559Z,10.57
2023-02-21T23:26:30.216Z,9.50
2023-02-21T23:28:32.523Z,9.97
2023-02-21T23:30:36.184Z,9.03
2023-02-21T23:32:39.205Z,9.25
2023-02-21T23:34:41.257Z,10.30
2023-02-21T23:36:43.102Z,8.03
2023-02-21T23:38:44.657Z,10.60
2023-02-21T23:40:47.886Z,10.45
2023-02-21T23:42:52.274Z,11.40
2023-02-21T23:44:53.906Z,11.00
2023-02-21T23:46:55.600Z,10.20
2023-02-21T23:48:58.793Z,12.68
2023-02-21T23:51:00.386Z,10.25
2023-02-21T23:53:02.255Z,11.00
2023-02-21T23:55:04.164Z,10.50
2023-02-21T23:57:05.710Z,10.17
2023-02-21T23:59:07.709Z,11.32
